Accueil
METAR-TAF:

METAR-TAF

Aéroports :

Nancy, France

Aéroport de Nancy-Essey

latitude: 48-41N, longitude: 006-13E, altitude: 225 m

Observation

Le bulletin a été fait il y a 35 minutes, à 02:00 UTC
Vent 8 kt de sud-ouest, variant entre sud et ouest/sud-ouest
Température 8°C
Humidité 87%
Pression 1008 hPa
Visibilité 10 km ou plus
Quelques nuages à une hauteur de 1400 ft
Nuages épars à une hauteur de 2000 ft
Ciel couvert à une hauteur de 4000 ft

METAR: LFSN 010200Z AUTO 22008KT 180V250 9999 FEW014 SCT020 OVC040 08/06 Q1008

Heure: 04:35 (02:35 UTC)


TAF: absent

Observations et prévisions météorologiques de plus de 4000 aéroports (messages METAR et TAF).

Les stations disponibles sont représentées par des disques jaunes et rouges sur la carte.

Passer la souris dessus pour voir le nom de la station.

Cliquer dessus pour voir les observations et prévisions météorologiques.

Pour changer de carte: cliquez sur les boutons verts avec une croix noire pour zoomer, sur le bouton vert avec un tiret pour effectuer un zoom arrière, ou sur les flèches vertes pour les cartes adjacentes.


METAR-TAF: